sensor_id;sensor_type;location;lat;lon;timestamp;temperature;humidity
5689;DHT22;2869;50.432;8.680;2022-12-29T00:00:10;9.10;99.90
5689;DHT22;2869;50.432;8.680;2022-12-29T00:02:37;9.10;99.90
5689;DHT22;2869;50.432;8.680;2022-12-29T00:05:04;9.10;99.90
5689;DHT22;2869;50.432;8.680;2022-12-29T00:07:32;9.10;99.90
5689;DHT22;2869;50.432;8.680;2022-12-29T00:09:59;9.20;99.90
5689;DHT22;2869;50.432;8.680;2022-12-29T00:12:26;9.20;99.90
5689;DHT22;2869;50.432;8.680;2022-12-29T00:15:13;9.20;99.90
5689;DHT22;2869;50.432;8.680;2022-12-29T00:17:57;9.10;99.90
5689;DHT22;2869;50.432;8.680;2022-12-29T00:20:23;9.00;99.90
5689;DHT22;2869;50.432;8.680;2022-12-29T00:23:07;8.90;99.90
5689;DHT22;2869;50.432;8.680;2022-12-29T00:25:52;9.00;99.90
5689;DHT22;2869;50.432;8.680;2022-12-29T00:28:36;9.20;99.90
5689;DHT22;2869;50.432;8.680;2022-12-29T00:31:20;9.40;99.90
5689;DHT22;2869;50.432;8.680;2022-12-29T00:34:04;9.50;99.90
5689;DHT22;2869;50.432;8.680;2022-12-29T00:36:48;9.50;99.90
5689;DHT22;2869;50.432;8.680;2022-12-29T00:39:17;9.50;99.90
5689;DHT22;2869;50.432;8.680;2022-12-29T00:42:05;9.50;99.90
5689;DHT22;2869;50.432;8.680;2022-12-29T00:44:58;9.50;99.90
5689;DHT22;2869;50.432;8.680;2022-12-29T00:47:25;9.60;99.90
5689;DHT22;2869;50.432;8.680;2022-12-29T00:49:51;9.60;99.90
5689;DHT22;2869;50.432;8.680;2022-12-29T00:52:17;9.60;99.90
5689;DHT22;2869;50.432;8.680;2022-12-29T00:54:45;9.70;99.90
5689;DHT22;2869;50.432;8.680;2022-12-29T00:57:12;9.80;99.90
5689;DHT22;2869;50.432;8.680;2022-12-29T00:59:39;9.80;99.90
5689;DHT22;2869;50.432;8.680;2022-12-29T01:02:06;9.80;99.90
5689;DHT22;2869;50.432;8.680;2022-12-29T01:04:33;9.90;99.90
5689;DHT22;2869;50.432;8.680;2022-12-29T01:07:00;9.90;99.90
5689;DHT22;2869;50.432;8.680;2022-12-29T01:09:26;9.90;99.90
5689;DHT22;2869;50.432;8.680;2022-12-29T01:12:12;9.80;99.90
5689;DHT22;2869;50.432;8.680;2022-12-29T01:14:39;9.90;99.90
5689;DHT22;2869;50.432;8.680;2022-12-29T01:17:06;9.90;99.90
5689;DHT22;2869;50.432;8.680;2022-12-29T01:19:33;9.90;99.90
5689;DHT22;2869;50.432;8.680;2022-12-29T01:21:59;9.90;99.90
5689;DHT22;2869;50.432;8.680;2022-12-29T01:24:26;9.90;99.90
5689;DHT22;2869;50.432;8.680;2022-12-29T01:26:53;9.90;99.90
5689;DHT22;2869;50.432;8.680;2022-12-29T01:29:21;9.80;99.90
5689;DHT22;2869;50.432;8.680;2022-12-29T01:31:48;9.80;99.90
5689;DHT22;2869;50.432;8.680;2022-12-29T01:34:15;9.80;99.90
5689;DHT22;2869;50.432;8.680;2022-12-29T01:36:41;9.80;99.90
5689;DHT22;2869;50.432;8.680;2022-12-29T01:39:08;9.80;99.90
5689;DHT22;2869;50.432;8.680;2022-12-29T01:41:34;9.80;99.90
5689;DHT22;2869;50.432;8.680;2022-12-29T01:44:01;9.80;99.90
5689;DHT22;2869;50.432;8.680;2022-12-29T01:46:32;9.90;99.90
5689;DHT22;2869;50.432;8.680;2022-12-29T01:49:05;9.90;99.90
5689;DHT22;2869;50.432;8.680;2022-12-29T01:51:36;9.90;99.90
5689;DHT22;2869;50.432;8.680;2022-12-29T01:54:08;9.90;99.90
5689;DHT22;2869;50.432;8.680;2022-12-29T01:56:36;9.90;99.90
5689;DHT22;2869;50.432;8.680;2022-12-29T01:59:06;9.90;99.90
5689;DHT22;2869;50.432;8.680;2022-12-29T02:01:37;10.00;99.90
5689;DHT22;2869;50.432;8.680;2022-12-29T02:04:04;10.00;99.90
5689;DHT22;2869;50.432;8.680;2022-12-29T02:06:34;10.00;99.90
5689;DHT22;2869;50.432;8.680;2022-12-29T02:09:03;10.00;99.90
5689;DHT22;2869;50.432;8.680;2022-12-29T02:11:30;10.00;99.90
5689;DHT22;2869;50.432;8.680;2022-12-29T02:13:57;10.00;99.90
5689;DHT22;2869;50.432;8.680;2022-12-29T02:16:33;10.10;99.90
5689;DHT22;2869;50.432;8.680;2022-12-29T02:22:02;10.00;99.90
5689;DHT22;2869;50.432;8.680;2022-12-29T02:24:57;10.00;99.90
5689;DHT22;2869;50.432;8.680;2022-12-29T02:27:36;10.10;99.90
5689;DHT22;2869;50.432;8.680;2022-12-29T02:30:12;10.00;99.90
5689;DHT22;2869;50.432;8.680;2022-12-29T02:32:49;10.00;99.90
5689;DHT22;2869;50.432;8.680;2022-12-29T02:35:25;10.00;99.90
5689;DHT22;2869;50.432;8.680;2022-12-29T02:37:59;10.00;99.90
5689;DHT22;2869;50.432;8.680;2022-12-29T02:40:31;10.00;99.90
5689;DHT22;2869;50.432;8.680;2022-12-29T02:43:04;10.00;99.90
5689;DHT22;2869;50.432;8.680;2022-12-29T02:45:46;10.10;99.90
5689;DHT22;2869;50.432;8.680;2022-12-29T02:48:19;10.10;99.90
5689;DHT22;2869;50.432;8.680;2022-12-29T02:50:51;10.20;99.90
5689;DHT22;2869;50.432;8.680;2022-12-29T02:53:19;10.20;99.90
5689;DHT22;2869;50.432;8.680;2022-12-29T02:56:07;10.20;99.90
5689;DHT22;2869;50.432;8.680;2022-12-29T02:58:33;10.10;99.90
5689;DHT22;2869;50.432;8.680;2022-12-29T03:01:13;10.10;99.90
5689;DHT22;2869;50.432;8.680;2022-12-29T03:03:53;10.00;99.90
5689;DHT22;2869;50.432;8.680;2022-12-29T03:06:33;10.00;99.90
5689;DHT22;2869;50.432;8.680;2022-12-29T03:09:09;9.90;99.90
5689;DHT22;2869;50.432;8.680;2022-12-29T03:11:44;9.90;99.90
5689;DHT22;2869;50.432;8.680;2022-12-29T03:14:35;9.90;99.90
5689;DHT22;2869;50.432;8.680;2022-12-29T03:17:25;10.00;99.90
5689;DHT22;2869;50.432;8.680;2022-12-29T03:20:01;10.00;99.90
5689;DHT22;2869;50.432;8.680;2022-12-29T03:22:30;10.00;99.90
5689;DHT22;2869;50.432;8.680;2022-12-29T03:25:01;10.00;99.90
5689;DHT22;2869;50.432;8.680;2022-12-29T03:27:30;10.00;99.90
5689;DHT22;2869;50.432;8.680;2022-12-29T03:30:01;10.00;99.90
5689;DHT22;2869;50.432;8.680;2022-12-29T03:32:33;10.00;99.90
5689;DHT22;2869;50.432;8.680;2022-12-29T03:35:03;10.00;99.90
5689;DHT22;2869;50.432;8.680;2022-12-29T03:37:34;10.00;99.90
5689;DHT22;2869;50.432;8.680;2022-12-29T03:40:03;9.90;99.90
5689;DHT22;2869;50.432;8.680;2022-12-29T03:42:32;9.90;99.90
5689;DHT22;2869;50.432;8.680;2022-12-29T03:45:00;9.90;99.90
5689;DHT22;2869;50.432;8.680;2022-12-29T03:47:27;9.90;99.90
5689;DHT22;2869;50.432;8.680;2022-12-29T03:49:54;9.90;99.90
5689;DHT22;2869;50.432;8.680;2022-12-29T03:52:22;9.90;99.90
5689;DHT22;2869;50.432;8.680;2022-12-29T03:54:49;9.80;99.90
5689;DHT22;2869;50.432;8.680;2022-12-29T03:57:15;9.80;99.90
5689;DHT22;2869;50.432;8.680;2022-12-29T03:59:42;9.80;99.90
5689;DHT22;2869;50.432;8.680;2022-12-29T04:02:08;9.80;99.90
5689;DHT22;2869;50.432;8.680;2022-12-29T04:04:35;9.80;99.90
5689;DHT22;2869;50.432;8.680;2022-12-29T04:07:02;9.80;99.90
5689;DHT22;2869;50.432;8.680;2022-12-29T04:09:30;9.80;99.90
5689;DHT22;2869;50.432;8.680;2022-12-29T04:11:57;9.80;99.90
5689;DHT22;2869;50.432;8.680;2022-12-29T04:14:23;9.80;99.90
5689;DHT22;2869;50.432;8.680;2022-12-29T04:16:50;9.80;99.90
5689;DHT22;2869;50.432;8.680;2022-12-29T04:19:17;9.80;99.90
5689;DHT22;2869;50.432;8.680;2022-12-29T04:21:43;9.70;99.90
5689;DHT22;2869;50.432;8.680;2022-12-29T04:24:10;9.70;99.90
5689;DHT22;2869;50.432;8.680;2022-12-29T04:26:39;9.70;99.90
5689;DHT22;2869;50.432;8.680;2022-12-29T04:29:06;9.70;99.90
5689;DHT22;2869;50.432;8.680;2022-12-29T04:31:33;9.70;99.90
5689;DHT22;2869;50.432;8.680;2022-12-29T04:34:00;9.80;99.90
5689;DHT22;2869;50.432;8.680;2022-12-29T04:36:26;9.80;99.90
5689;DHT22;2869;50.432;8.680;2022-12-29T04:38:53;9.80;99.90
5689;DHT22;2869;50.432;8.680;2022-12-29T04:41:20;9.80;99.90
5689;DHT22;2869;50.432;8.680;2022-12-29T04:43:47;9.80;99.90
5689;DHT22;2869;50.432;8.680;2022-12-29T04:46:14;9.80;99.90
5689;DHT22;2869;50.432;8.680;2022-12-29T04:48:41;9.80;99.90
5689;DHT22;2869;50.432;8.680;2022-12-29T04:51:07;9.80;99.90
5689;DHT22;2869;50.432;8.680;2022-12-29T04:53:34;9.80;99.90
5689;DHT22;2869;50.432;8.680;2022-12-29T04:56:01;9.80;99.90
5689;DHT22;2869;50.432;8.680;2022-12-29T04:58:27;9.90;99.90
5689;DHT22;2869;50.432;8.680;2022-12-29T05:00:55;9.90;99.90
5689;DHT22;2869;50.432;8.680;2022-12-29T05:03:22;9.90;99.90
5689;DHT22;2869;50.432;8.680;2022-12-29T05:05:48;9.90;99.90
5689;DHT22;2869;50.432;8.680;2022-12-29T05:08:15;9.90;99.90
5689;DHT22;2869;50.432;8.680;2022-12-29T05:10:44;9.90;99.90
5689;DHT22;2869;50.432;8.680;2022-12-29T05:13:11;9.90;99.90
5689;DHT22;2869;50.432;8.680;2022-12-29T05:15:38;9.90;99.90
5689;DHT22;2869;50.432;8.680;2022-12-29T05:18:05;9.90;99.90
5689;DHT22;2869;50.432;8.680;2022-12-29T05:20:32;9.80;99.90
5689;DHT22;2869;50.432;8.680;2022-12-29T05:22:59;9.80;99.90
5689;DHT22;2869;50.432;8.680;2022-12-29T05:25:25;9.80;99.90
5689;DHT22;2869;50.432;8.680;2022-12-29T05:27:52;9.80;99.90
5689;DHT22;2869;50.432;8.680;2022-12-29T05:30:19;9.80;99.90
5689;DHT22;2869;50.432;8.680;2022-12-29T05:32:45;9.80;99.90
5689;DHT22;2869;50.432;8.680;2022-12-29T05:35:13;9.80;99.90
5689;DHT22;2869;50.432;8.680;2022-12-29T05:37:40;9.90;99.90
5689;DHT22;2869;50.432;8.680;2022-12-29T05:40:08;9.90;99.90
5689;DHT22;2869;50.432;8.680;2022-12-29T05:42:34;9.90;99.90
5689;DHT22;2869;50.432;8.680;2022-12-29T05:45:01;9.90;99.90
5689;DHT22;2869;50.432;8.680;2022-12-29T05:47:28;9.90;99.90
5689;DHT22;2869;50.432;8.680;2022-12-29T05:49:54;9.90;99.90
5689;DHT22;2869;50.432;8.680;2022-12-29T05:52:22;9.90;99.90
5689;DHT22;2869;50.432;8.680;2022-12-29T05:54:49;9.90;99.90
5689;DHT22;2869;50.432;8.680;2022-12-29T05:57:16;9.90;99.90
5689;DHT22;2869;50.432;8.680;2022-12-29T05:59:42;9.90;99.90
5689;DHT22;2869;50.432;8.680;2022-12-29T06:02:09;9.80;99.90
5689;DHT22;2869;50.432;8.680;2022-12-29T06:04:36;9.80;99.90
5689;DHT22;2869;50.432;8.680;2022-12-29T06:07:02;9.80;99.90
5689;DHT22;2869;50.432;8.680;2022-12-29T06:09:30;9.80;99.90
5689;DHT22;2869;50.432;8.680;2022-12-29T06:11:57;9.80;99.90
5689;DHT22;2869;50.432;8.680;2022-12-29T06:14:24;9.80;99.90
5689;DHT22;2869;50.432;8.680;2022-12-29T06:16:50;9.70;99.90
5689;DHT22;2869;50.432;8.680;2022-12-29T06:19:17;9.70;99.90
5689;DHT22;2869;50.432;8.680;2022-12-29T06:21:43;9.70;99.90
5689;DHT22;2869;50.432;8.680;2022-12-29T06:24:10;9.70;99.90
5689;DHT22;2869;50.432;8.680;2022-12-29T06:26:38;9.70;99.90
5689;DHT22;2869;50.432;8.680;2022-12-29T06:29:05;9.80;99.90
5689;DHT22;2869;50.432;8.680;2022-12-29T06:31:33;9.80;99.90
5689;DHT22;2869;50.432;8.680;2022-12-29T06:34:00;9.80;99.90
5689;DHT22;2869;50.432;8.680;2022-12-29T06:36:26;9.80;99.90
5689;DHT22;2869;50.432;8.680;2022-12-29T06:38:53;9.70;99.90
5689;DHT22;2869;50.432;8.680;2022-12-29T06:41:20;9.70;99.90
5689;DHT22;2869;50.432;8.680;2022-12-29T06:43:48;9.70;99.90
5689;DHT22;2869;50.432;8.680;2022-12-29T06:46:15;9.70;99.90
5689;DHT22;2869;50.432;8.680;2022-12-29T06:48:42;9.70;99.90
5689;DHT22;2869;50.432;8.680;2022-12-29T06:51:08;9.70;99.90
5689;DHT22;2869;50.432;8.680;2022-12-29T06:53:35;9.70;99.90
5689;DHT22;2869;50.432;8.680;2022-12-29T06:56:01;9.70;99.90
5689;DHT22;2869;50.432;8.680;2022-12-29T06:58:28;9.80;99.90
5689;DHT22;2869;50.432;8.680;2022-12-29T07:00:56;9.80;99.90
5689;DHT22;2869;50.432;8.680;2022-12-29T07:03:23;9.80;99.90
5689;DHT22;2869;50.432;8.680;2022-12-29T07:05:50;9.80;99.90
5689;DHT22;2869;50.432;8.680;2022-12-29T07:08:17;9.70;99.90
5689;DHT22;2869;50.432;8.680;2022-12-29T07:10:43;9.70;99.90
5689;DHT22;2869;50.432;8.680;2022-12-29T07:13:10;9.60;99.90
5689;DHT22;2869;50.432;8.680;2022-12-29T07:15:37;9.60;99.90
5689;DHT22;2869;50.432;8.680;2022-12-29T07:18:05;9.60;99.90
5689;DHT22;2869;50.432;8.680;2022-12-29T07:20:32;9.60;99.90
5689;DHT22;2869;50.432;8.680;2022-12-29T07:22:58;9.60;99.90
5689;DHT22;2869;50.432;8.680;2022-12-29T07:25:25;9.60;99.90
5689;DHT22;2869;50.432;8.680;2022-12-29T07:27:52;9.60;99.90
5689;DHT22;2869;50.432;8.680;2022-12-29T07:30:18;9.60;99.90
5689;DHT22;2869;50.432;8.680;2022-12-29T07:32:45;9.60;99.90
5689;DHT22;2869;50.432;8.680;2022-12-29T07:35:13;9.60;99.90
5689;DHT22;2869;50.432;8.680;2022-12-29T07:37:40;9.60;99.90
5689;DHT22;2869;50.432;8.680;2022-12-29T07:40:08;9.60;99.90
5689;DHT22;2869;50.432;8.680;2022-12-29T07:42:35;9.60;99.90
5689;DHT22;2869;50.432;8.680;2022-12-29T07:45:02;9.60;99.90
5689;DHT22;2869;50.432;8.680;2022-12-29T07:47:29;9.60;99.90
5689;DHT22;2869;50.432;8.680;2022-12-29T07:49:55;9.70;99.90
5689;DHT22;2869;50.432;8.680;2022-12-29T07:52:23;9.70;99.90
5689;DHT22;2869;50.432;8.680;2022-12-29T07:54:50;9.70;99.90
5689;DHT22;2869;50.432;8.680;2022-12-29T07:57:17;9.80;99.90
5689;DHT22;2869;50.432;8.680;2022-12-29T07:59:43;9.80;99.90
5689;DHT22;2869;50.432;8.680;2022-12-29T08:02:10;9.80;99.90
5689;DHT22;2869;50.432;8.680;2022-12-29T08:04:37;9.90;99.90
5689;DHT22;2869;50.432;8.680;2022-12-29T08:07:04;9.90;99.90
5689;DHT22;2869;50.432;8.680;2022-12-29T08:09:32;10.00;99.90
5689;DHT22;2869;50.432;8.680;2022-12-29T08:11:59;10.10;99.90
5689;DHT22;2869;50.432;8.680;2022-12-29T08:14:25;10.20;99.90
5689;DHT22;2869;50.432;8.680;2022-12-29T08:16:52;10.30;99.90
5689;DHT22;2869;50.432;8.680;2022-12-29T08:19:18;10.30;99.90
5689;DHT22;2869;50.432;8.680;2022-12-29T08:21:45;10.40;99.90
5689;DHT22;2869;50.432;8.680;2022-12-29T08:24:12;10.40;99.90
5689;DHT22;2869;50.432;8.680;2022-12-29T08:26:40;10.40;99.90
5689;DHT22;2869;50.432;8.680;2022-12-29T08:29:06;10.50;99.90
5689;DHT22;2869;50.432;8.680;2022-12-29T08:31:33;10.60;99.90
5689;DHT22;2869;50.432;8.680;2022-12-29T08:34:00;10.70;99.90
5689;DHT22;2869;50.432;8.680;2022-12-29T08:36:28;10.80;99.90
5689;DHT22;2869;50.432;8.680;2022-12-29T08:38:55;10.90;99.90
5689;DHT22;2869;50.432;8.680;2022-12-29T08:41:22;11.00;99.90
5689;DHT22;2869;50.432;8.680;2022-12-29T08:43:50;11.00;99.90
5689;DHT22;2869;50.432;8.680;2022-12-29T08:46:17;10.90;99.90
5689;DHT22;2869;50.432;8.680;2022-12-29T08:48:44;10.90;99.90
5689;DHT22;2869;50.432;8.680;2022-12-29T08:51:11;10.80;99.90
5689;DHT22;2869;50.432;8.680;2022-12-29T08:53:38;10.70;99.90
5689;DHT22;2869;50.432;8.680;2022-12-29T08:56:06;10.70;99.90
5689;DHT22;2869;50.432;8.680;2022-12-29T08:58:32;10.60;99.90
5689;DHT22;2869;50.432;8.680;2022-12-29T09:01:00;10.60;99.90
5689;DHT22;2869;50.432;8.680;2022-12-29T09:03:27;10.50;99.90
5689;DHT22;2869;50.432;8.680;2022-12-29T09:05:54;10.40;99.90
5689;DHT22;2869;50.432;8.680;2022-12-29T09:08:22;10.40;99.90
5689;DHT22;2869;50.432;8.680;2022-12-29T09:10:49;10.30;99.90
5689;DHT22;2869;50.432;8.680;2022-12-29T09:13:17;10.30;99.90
5689;DHT22;2869;50.432;8.680;2022-12-29T09:15:44;10.20;99.90
5689;DHT22;2869;50.432;8.680;2022-12-29T09:18:12;10.20;99.90
5689;DHT22;2869;50.432;8.680;2022-12-29T09:20:39;10.20;99.90
5689;DHT22;2869;50.432;8.680;2022-12-29T09:23:06;10.10;99.90
5689;DHT22;2869;50.432;8.680;2022-12-29T09:25:33;10.10;99.90
5689;DHT22;2869;50.432;8.680;2022-12-29T09:28:00;10.10;99.90
5689;DHT22;2869;50.432;8.680;2022-12-29T09:30:29;10.10;99.90
5689;DHT22;2869;50.432;8.680;2022-12-29T09:32:56;10.10;99.90
5689;DHT22;2869;50.432;8.680;2022-12-29T09:35:24;10.10;99.90
5689;DHT22;2869;50.432;8.680;2022-12-29T09:37:50;10.10;99.90
5689;DHT22;2869;50.432;8.680;2022-12-29T09:40:24;10.10;99.90
5689;DHT22;2869;50.432;8.680;2022-12-29T09:43:12;10.00;99.90
5689;DHT22;2869;50.432;8.680;2022-12-29T09:45:45;10.10;99.90
5689;DHT22;2869;50.432;8.680;2022-12-29T09:48:17;10.00;99.90
5689;DHT22;2869;50.432;8.680;2022-12-29T09:50:49;10.00;99.90
5689;DHT22;2869;50.432;8.680;2022-12-29T09:53:21;10.00;99.90
5689;DHT22;2869;50.432;8.680;2022-12-29T09:55:53;10.00;99.90
5689;DHT22;2869;50.432;8.680;2022-12-29T09:58:25;10.10;99.90
5689;DHT22;2869;50.432;8.680;2022-12-29T10:00:58;10.10;99.90
5689;DHT22;2869;50.432;8.680;2022-12-29T10:03:32;10.10;99.90
5689;DHT22;2869;50.432;8.680;2022-12-29T10:06:08;10.20;99.90
5689;DHT22;2869;50.432;8.680;2022-12-29T10:08:40;10.20;99.90
5689;DHT22;2869;50.432;8.680;2022-12-29T10:11:28;10.20;99.90
5689;DHT22;2869;50.432;8.680;2022-12-29T10:14:16;10.20;99.90
5689;DHT22;2869;50.432;8.680;2022-12-29T10:16:51;10.20;99.90
5689;DHT22;2869;50.432;8.680;2022-12-29T10:19:39;10.20;99.90
5689;DHT22;2869;50.432;8.680;2022-12-29T10:22:23;10.20;99.90
5689;DHT22;2869;50.432;8.680;2022-12-29T10:24:53;10.20;99.90
5689;DHT22;2869;50.432;8.680;2022-12-29T10:27:21;10.20;99.90
5689;DHT22;2869;50.432;8.680;2022-12-29T10:29:50;10.10;99.90
5689;DHT22;2869;50.432;8.680;2022-12-29T10:32:25;10.10;99.90
5689;DHT22;2869;50.432;8.680;2022-12-29T10:34:56;10.10;99.90
5689;DHT22;2869;50.432;8.680;2022-12-29T10:37:30;10.30;99.90
5689;DHT22;2869;50.432;8.680;2022-12-29T10:39:59;10.40;99.90
5689;DHT22;2869;50.432;8.680;2022-12-29T10:42:34;10.50;99.90
5689;DHT22;2869;50.432;8.680;2022-12-29T10:45:05;10.50;99.90
5689;DHT22;2869;50.432;8.680;2022-12-29T10:47:35;10.50;99.90
5689;DHT22;2869;50.432;8.680;2022-12-29T10:50:05;10.50;99.90
5689;DHT22;2869;50.432;8.680;2022-12-29T10:52:35;10.60;99.90
5689;DHT22;2869;50.432;8.680;2022-12-29T10:55:08;10.80;99.90
5689;DHT22;2869;50.432;8.680;2022-12-29T10:57:41;11.10;99.90
5689;DHT22;2869;50.432;8.680;2022-12-29T11:00:12;11.50;99.90
5689;DHT22;2869;50.432;8.680;2022-12-29T11:02:58;11.70;99.90
5689;DHT22;2869;50.432;8.680;2022-12-29T11:05:33;11.90;99.90
5689;DHT22;2869;50.432;8.680;2022-12-29T11:08:09;11.80;99.90
5689;DHT22;2869;50.432;8.680;2022-12-29T11:10:39;11.70;99.90
5689;DHT22;2869;50.432;8.680;2022-12-29T11:13:13;11.60;99.90
5689;DHT22;2869;50.432;8.680;2022-12-29T11:15:41;11.50;99.90
5689;DHT22;2869;50.432;8.680;2022-12-29T11:18:19;11.50;99.90
5689;DHT22;2869;50.432;8.680;2022-12-29T11:20:46;11.40;99.90
5689;DHT22;2869;50.432;8.680;2022-12-29T11:23:29;11.30;99.90
5689;DHT22;2869;50.432;8.680;2022-12-29T11:26:14;11.40;99.90
5689;DHT22;2869;50.432;8.680;2022-12-29T11:28:43;11.30;99.90
5689;DHT22;2869;50.432;8.680;2022-12-29T11:31:10;11.30;99.90
5689;DHT22;2869;50.432;8.680;2022-12-29T11:33:38;11.40;99.90
5689;DHT22;2869;50.432;8.680;2022-12-29T11:36:07;11.40;99.90
5689;DHT22;2869;50.432;8.680;2022-12-29T11:38:38;11.40;99.90
5689;DHT22;2869;50.432;8.680;2022-12-29T11:41:06;11.40;99.90
5689;DHT22;2869;50.432;8.680;2022-12-29T11:43:38;11.40;99.90
5689;DHT22;2869;50.432;8.680;2022-12-29T11:46:14;11.30;99.90
5689;DHT22;2869;50.432;8.680;2022-12-29T11:48:41;11.30;99.90
5689;DHT22;2869;50.432;8.680;2022-12-29T11:51:09;11.30;99.90
5689;DHT22;2869;50.432;8.680;2022-12-29T11:53:42;11.30;99.90
5689;DHT22;2869;50.432;8.680;2022-12-29T11:56:12;11.30;99.90
5689;DHT22;2869;50.432;8.680;2022-12-29T11:58:40;11.40;99.90
5689;DHT22;2869;50.432;8.680;2022-12-29T12:01:13;11.50;99.90
5689;DHT22;2869;50.432;8.680;2022-12-29T12:03:45;11.50;99.90
5689;DHT22;2869;50.432;8.680;2022-12-29T12:06:18;11.50;99.90
5689;DHT22;2869;50.432;8.680;2022-12-29T12:08:54;11.50;99.90
5689;DHT22;2869;50.432;8.680;2022-12-29T12:11:25;11.50;99.90
5689;DHT22;2869;50.432;8.680;2022-12-29T12:13:58;11.40;99.90
5689;DHT22;2869;50.432;8.680;2022-12-29T12:16:30;11.40;99.90
5689;DHT22;2869;50.432;8.680;2022-12-29T12:19:02;11.30;99.90
5689;DHT22;2869;50.432;8.680;2022-12-29T12:21:33;11.40;99.90
5689;DHT22;2869;50.432;8.680;2022-12-29T12:24:34;11.30;99.90
5689;DHT22;2869;50.432;8.680;2022-12-29T12:27:11;11.30;99.90
5689;DHT22;2869;50.432;8.680;2022-12-29T12:29:45;11.30;99.90
5689;DHT22;2869;50.432;8.680;2022-12-29T12:32:16;11.30;99.90
5689;DHT22;2869;50.432;8.680;2022-12-29T12:34:45;11.30;99.90
5689;DHT22;2869;50.432;8.680;2022-12-29T12:37:38;11.30;99.90
5689;DHT22;2869;50.432;8.680;2022-12-29T12:40:29;11.30;99.90
5689;DHT22;2869;50.432;8.680;2022-12-29T12:43:12;11.30;99.90
5689;DHT22;2869;50.432;8.680;2022-12-29T12:45:49;11.30;99.90
5689;DHT22;2869;50.432;8.680;2022-12-29T12:48:42;11.30;99.90
5689;DHT22;2869;50.432;8.680;2022-12-29T12:51:18;11.40;99.90
5689;DHT22;2869;50.432;8.680;2022-12-29T12:53:58;11.70;99.90
5689;DHT22;2869;50.432;8.680;2022-12-29T12:59:34;12.20;99.90
5689;DHT22;2869;50.432;8.680;2022-12-29T13:02:15;12.40;99.90
5689;DHT22;2869;50.432;8.680;2022-12-29T13:05:04;12.70;99.90
5689;DHT22;2869;50.432;8.680;2022-12-29T13:07:43;12.90;99.90
5689;DHT22;2869;50.432;8.680;2022-12-29T13:10:30;12.90;99.90
5689;DHT22;2869;50.432;8.680;2022-12-29T13:13:28;12.80;99.90
5689;DHT22;2869;50.432;8.680;2022-12-29T13:16:03;12.60;99.90
5689;DHT22;2869;50.432;8.680;2022-12-29T13:18:35;12.40;99.90
5689;DHT22;2869;50.432;8.680;2022-12-29T13:21:07;12.30;99.90
5689;DHT22;2869;50.432;8.680;2022-12-29T13:23:40;12.10;99.90
5689;DHT22;2869;50.432;8.680;2022-12-29T13:26:14;12.00;99.90
5689;DHT22;2869;50.432;8.680;2022-12-29T13:28:49;11.90;99.90
5689;DHT22;2869;50.432;8.680;2022-12-29T13:31:23;11.80;99.90
5689;DHT22;2869;50.432;8.680;2022-12-29T13:34:00;11.80;99.90
5689;DHT22;2869;50.432;8.680;2022-12-29T13:36:29;11.70;99.90
5689;DHT22;2869;50.432;8.680;2022-12-29T13:39:05;11.70;99.90
5689;DHT22;2869;50.432;8.680;2022-12-29T13:41:38;11.70;99.90
5689;DHT22;2869;50.432;8.680;2022-12-29T13:44:09;11.70;99.90
5689;DHT22;2869;50.432;8.680;2022-12-29T13:46:43;11.70;99.90
5689;DHT22;2869;50.432;8.680;2022-12-29T13:49:14;11.60;99.90
5689;DHT22;2869;50.432;8.680;2022-12-29T13:51:46;11.60;99.90
5689;DHT22;2869;50.432;8.680;2022-12-29T13:54:22;11.60;99.90
5689;DHT22;2869;50.432;8.680;2022-12-29T13:56:55;11.50;99.90
5689;DHT22;2869;50.432;8.680;2022-12-29T13:59:33;11.50;99.90
5689;DHT22;2869;50.432;8.680;2022-12-29T14:02:13;11.50;99.90
5689;DHT22;2869;50.432;8.680;2022-12-29T14:04:56;11.50;99.90
5689;DHT22;2869;50.432;8.680;2022-12-29T14:07:23;11.60;99.90
5689;DHT22;2869;50.432;8.680;2022-12-29T14:09:52;11.60;99.90
5689;DHT22;2869;50.432;8.680;2022-12-29T14:12:34;11.60;99.90
5689;DHT22;2869;50.432;8.680;2022-12-29T14:15:06;11.60;99.90
5689;DHT22;2869;50.432;8.680;2022-12-29T14:17:41;11.50;99.90
5689;DHT22;2869;50.432;8.680;2022-12-29T14:20:18;11.50;99.90
5689;DHT22;2869;50.432;8.680;2022-12-29T14:22:57;11.40;99.90
5689;DHT22;2869;50.432;8.680;2022-12-29T14:25:56;11.30;99.90
5689;DHT22;2869;50.432;8.680;2022-12-29T14:28:24;11.30;99.90
5689;DHT22;2869;50.432;8.680;2022-12-29T14:30:54;11.30;99.90
5689;DHT22;2869;50.432;8.680;2022-12-29T14:33:22;11.30;99.90
5689;DHT22;2869;50.432;8.680;2022-12-29T14:35:52;11.20;99.90
5689;DHT22;2869;50.432;8.680;2022-12-29T14:38:27;11.10;99.90
5689;DHT22;2869;50.432;8.680;2022-12-29T14:41:17;11.10;99.90
5689;DHT22;2869;50.432;8.680;2022-12-29T14:43:53;11.00;99.90
5689;DHT22;2869;50.432;8.680;2022-12-29T14:46:22;10.90;99.90
5689;DHT22;2869;50.432;8.680;2022-12-29T14:48:55;10.90;99.90
5689;DHT22;2869;50.432;8.680;2022-12-29T14:51:31;10.90;99.90
5689;DHT22;2869;50.432;8.680;2022-12-29T14:57:08;10.90;99.90
5689;DHT22;2869;50.432;8.680;2022-12-29T14:59:36;10.80;99.90
5689;DHT22;2869;50.432;8.680;2022-12-29T15:02:14;10.70;99.90
5689;DHT22;2869;50.432;8.680;2022-12-29T15:04:42;10.70;99.90
5689;DHT22;2869;50.432;8.680;2022-12-29T15:07:10;10.70;99.90
5689;DHT22;2869;50.432;8.680;2022-12-29T15:09:40;10.60;99.90
5689;DHT22;2869;50.432;8.680;2022-12-29T15:12:18;10.60;99.90
5689;DHT22;2869;50.432;8.680;2022-12-29T15:14:51;10.60;99.90
5689;DHT22;2869;50.432;8.680;2022-12-29T15:17:28;10.50;99.90
5689;DHT22;2869;50.432;8.680;2022-12-29T15:19:56;10.50;99.90
5689;DHT22;2869;50.432;8.680;2022-12-29T15:22:24;10.50;99.90
5689;DHT22;2869;50.432;8.680;2022-12-29T15:24:52;10.40;99.90
5689;DHT22;2869;50.432;8.680;2022-12-29T15:27:21;10.30;99.90
5689;DHT22;2869;50.432;8.680;2022-12-29T15:29:56;10.30;99.90
5689;DHT22;2869;50.432;8.680;2022-12-29T15:32:24;10.30;99.90
5689;DHT22;2869;50.432;8.680;2022-12-29T15:34:54;10.20;99.90
5689;DHT22;2869;50.432;8.680;2022-12-29T15:37:23;10.20;99.90
5689;DHT22;2869;50.432;8.680;2022-12-29T15:39:51;10.20;99.90
5689;DHT22;2869;50.432;8.680;2022-12-29T15:42:29;10.20;99.90
5689;DHT22;2869;50.432;8.680;2022-12-29T15:44:58;10.20;99.90
5689;DHT22;2869;50.432;8.680;2022-12-29T15:47:30;10.20;99.90
5689;DHT22;2869;50.432;8.680;2022-12-29T15:50:02;10.20;99.90
5689;DHT22;2869;50.432;8.680;2022-12-29T15:52:32;10.20;99.90
5689;DHT22;2869;50.432;8.680;2022-12-29T15:54:59;10.20;99.90
5689;DHT22;2869;50.432;8.680;2022-12-29T15:57:28;10.10;99.90
5689;DHT22;2869;50.432;8.680;2022-12-29T15:59:55;10.10;99.90
5689;DHT22;2869;50.432;8.680;2022-12-29T16:02:22;10.00;99.90
5689;DHT22;2869;50.432;8.680;2022-12-29T16:04:50;10.00;99.90
5689;DHT22;2869;50.432;8.680;2022-12-29T16:07:26;9.90;99.90
5689;DHT22;2869;50.432;8.680;2022-12-29T16:09:55;9.90;99.90
5689;DHT22;2869;50.432;8.680;2022-12-29T16:12:24;9.90;99.90
5689;DHT22;2869;50.432;8.680;2022-12-29T16:14:54;9.80;99.90
5689;DHT22;2869;50.432;8.680;2022-12-29T16:17:24;9.70;99.90
5689;DHT22;2869;50.432;8.680;2022-12-29T16:19:55;9.80;99.90
5689;DHT22;2869;50.432;8.680;2022-12-29T16:22:27;9.80;99.90
5689;DHT22;2869;50.432;8.680;2022-12-29T16:25:00;9.80;99.90
5689;DHT22;2869;50.432;8.680;2022-12-29T16:27:32;9.80;99.90
5689;DHT22;2869;50.432;8.680;2022-12-29T16:30:03;9.70;99.90
5689;DHT22;2869;50.432;8.680;2022-12-29T16:32:31;9.70;99.90
5689;DHT22;2869;50.432;8.680;2022-12-29T16:35:17;9.80;99.90
5689;DHT22;2869;50.432;8.680;2022-12-29T16:37:46;9.70;99.90
5689;DHT22;2869;50.432;8.680;2022-12-29T16:40:31;9.70;99.90
5689;DHT22;2869;50.432;8.680;2022-12-29T16:42:59;9.60;99.90